sensor_id;sensor_type;location;lat;lon;timestamp;pressure;altitude;pressure_sealevel;temperature;humidity
25084;BME280;13075;55.682;37.564;2023-02-01T00:01:55;98206.50;;;5.43;100.00
25084;BME280;13075;55.682;37.564;2023-02-01T00:04:21;98201.06;;;5.64;100.00
25084;BME280;13075;55.682;37.564;2023-02-01T00:06:47;98209.19;;;5.56;100.00
25084;BME280;13075;55.682;37.564;2023-02-01T00:09:12;98211.84;;;5.49;100.00
25084;BME280;13075;55.682;37.564;2023-02-01T00:11:38;98208.72;;;5.33;100.00
25084;BME280;13075;55.682;37.564;2023-02-01T00:14:04;98214.50;;;5.56;100.00
25084;BME280;13075;55.682;37.564;2023-02-01T00:16:31;98207.78;;;5.47;100.00
25084;BME280;13075;55.682;37.564;2023-02-01T00:19:06;98209.56;;;5.40;100.00
25084;BME280;13075;55.682;37.564;2023-02-01T00:21:32;98210.81;;;5.44;100.00
25084;BME280;13075;55.682;37.564;2023-02-01T00:23:58;98205.69;;;5.36;100.00
25084;BME280;13075;55.682;37.564;2023-02-01T00:26:36;98218.94;;;5.36;100.00
25084;BME280;13075;55.682;37.564;2023-02-01T00:29:05;98214.69;;;5.48;100.00
25084;BME280;13075;55.682;37.564;2023-02-01T00:31:31;98213.44;;;5.31;100.00
25084;BME280;13075;55.682;37.564;2023-02-01T00:33:56;98213.75;;;5.08;100.00
25084;BME280;13075;55.682;37.564;2023-02-01T00:36:22;98208.16;;;5.44;100.00
25084;BME280;13075;55.682;37.564;2023-02-01T00:38:48;98204.47;;;5.38;100.00
25084;BME280;13075;55.682;37.564;2023-02-01T00:41:17;98198.56;;;5.43;100.00
25084;BME280;13075;55.682;37.564;2023-02-01T00:43:43;98205.69;;;5.42;100.00
25084;BME280;13075;55.682;37.564;2023-02-01T00:46:11;98206.25;;;5.18;100.00
25084;BME280;13075;55.682;37.564;2023-02-01T00:48:37;98200.00;;;5.45;100.00
25084;BME280;13075;55.682;37.564;2023-02-01T00:51:06;98200.56;;;5.21;100.00
25084;BME280;13075;55.682;37.564;2023-02-01T00:53:33;98202.00;;;5.30;100.00
25084;BME280;13075;55.682;37.564;2023-02-01T00:55:59;98203.88;;;5.43;100.00
25084;BME280;13075;55.682;37.564;2023-02-01T00:58:25;98205.44;;;5.24;100.00
25084;BME280;13075;55.682;37.564;2023-02-01T01:03:44;98205.94;;;5.60;100.00
25084;BME280;13075;55.682;37.564;2023-02-01T01:06:13;98203.09;;;5.01;100.00
25084;BME280;13075;55.682;37.564;2023-02-01T01:08:40;98201.34;;;5.15;100.00
25084;BME280;13075;55.682;37.564;2023-02-01T01:11:11;98202.16;;;5.22;100.00
25084;BME280;13075;55.682;37.564;2023-02-01T01:13:38;98211.50;;;5.12;100.00
25084;BME280;13075;55.682;37.564;2023-02-01T01:16:06;98206.44;;;5.17;100.00
25084;BME280;13075;55.682;37.564;2023-02-01T01:18:32;98203.81;;;5.30;100.00
25084;BME280;13075;55.682;37.564;2023-02-01T01:20:59;98212.75;;;5.16;100.00
25084;BME280;13075;55.682;37.564;2023-02-01T01:23:25;98208.91;;;5.25;100.00
25084;BME280;13075;55.682;37.564;2023-02-01T01:25:50;98216.78;;;5.05;100.00
25084;BME280;13075;55.682;37.564;2023-02-01T01:28:16;98209.94;;;5.24;100.00
25084;BME280;13075;55.682;37.564;2023-02-01T01:30:42;98217.94;;;5.43;100.00
25084;BME280;13075;55.682;37.564;2023-02-01T01:33:08;98224.63;;;5.26;100.00
25084;BME280;13075;55.682;37.564;2023-02-01T01:35:33;98217.28;;;5.28;100.00
25084;BME280;13075;55.682;37.564;2023-02-01T01:38:00;98215.88;;;5.32;100.00
25084;BME280;13075;55.682;37.564;2023-02-01T01:40:27;98220.38;;;5.45;100.00
25084;BME280;13075;55.682;37.564;2023-02-01T01:42:54;98221.22;;;5.39;100.00
25084;BME280;13075;55.682;37.564;2023-02-01T01:47:52;98225.41;;;5.20;100.00
25084;BME280;13075;55.682;37.564;2023-02-01T01:50:27;98232.81;;;5.38;100.00
25084;BME280;13075;55.682;37.564;2023-02-01T01:52:55;98227.69;;;5.30;100.00
25084;BME280;13075;55.682;37.564;2023-02-01T01:55:26;98223.00;;;5.32;100.00
25084;BME280;13075;55.682;37.564;2023-02-01T01:58:00;98227.78;;;5.02;100.00
25084;BME280;13075;55.682;37.564;2023-02-01T02:00:27;98230.59;;;4.94;100.00
25084;BME280;13075;55.682;37.564;2023-02-01T02:03:03;98229.50;;;5.29;100.00
25084;BME280;13075;55.682;37.564;2023-02-01T02:05:32;98227.47;;;5.25;100.00
25084;BME280;13075;55.682;37.564;2023-02-01T02:07:59;98227.84;;;5.15;100.00
25084;BME280;13075;55.682;37.564;2023-02-01T02:10:28;98219.16;;;5.41;100.00
25084;BME280;13075;55.682;37.564;2023-02-01T02:13:14;98220.72;;;5.22;100.00
25084;BME280;13075;55.682;37.564;2023-02-01T02:19:19;98222.03;;;5.52;100.00
25084;BME280;13075;55.682;37.564;2023-02-01T02:35:59;98235.75;;;5.09;100.00
25084;BME280;13075;55.682;37.564;2023-02-01T02:38:33;98246.25;;;5.30;100.00
25084;BME280;13075;55.682;37.564;2023-02-01T02:41:18;98239.72;;;5.32;100.00
25084;BME280;13075;55.682;37.564;2023-02-01T02:47:11;98239.28;;;5.16;100.00
25084;BME280;13075;55.682;37.564;2023-02-01T02:50:05;98244.19;;;5.25;100.00
25084;BME280;13075;55.682;37.564;2023-02-01T02:53:28;98240.94;;;5.30;100.00
25084;BME280;13075;55.682;37.564;2023-02-01T02:56:15;98239.09;;;5.24;100.00
25084;BME280;13075;55.682;37.564;2023-02-01T02:59:01;98235.84;;;5.28;100.00
25084;BME280;13075;55.682;37.564;2023-02-01T03:01:46;98233.63;;;5.38;100.00
25084;BME280;13075;55.682;37.564;2023-02-01T03:04:30;98243.19;;;5.33;100.00
25084;BME280;13075;55.682;37.564;2023-02-01T03:06:56;98240.25;;;5.08;100.00
25084;BME280;13075;55.682;37.564;2023-02-01T03:09:34;98240.44;;;5.07;100.00
25084;BME280;13075;55.682;37.564;2023-02-01T03:12:06;98246.25;;;5.30;100.00
25084;BME280;13075;55.682;37.564;2023-02-01T03:15:08;98246.78;;;5.06;100.00
25084;BME280;13075;55.682;37.564;2023-02-01T03:17:42;98247.41;;;5.14;100.00
25084;BME280;13075;55.682;37.564;2023-02-01T03:20:10;98242.19;;;5.34;100.00
25084;BME280;13075;55.682;37.564;2023-02-01T03:22:41;98237.94;;;5.46;100.00
25084;BME280;13075;55.682;37.564;2023-02-01T03:25:15;98243.25;;;5.46;100.00
25084;BME280;13075;55.682;37.564;2023-02-01T03:27:50;98254.63;;;5.40;100.00
25084;BME280;13075;55.682;37.564;2023-02-01T03:30:22;98248.59;;;5.59;100.00
25084;BME280;13075;55.682;37.564;2023-02-01T03:32:52;98247.50;;;5.40;100.00
25084;BME280;13075;55.682;37.564;2023-02-01T03:41:11;98246.97;;;5.64;100.00
25084;BME280;13075;55.682;37.564;2023-02-01T03:46:25;98258.16;;;5.53;100.00
25084;BME280;13075;55.682;37.564;2023-02-01T03:48:52;98260.38;;;5.50;100.00
25084;BME280;13075;55.682;37.564;2023-02-01T03:51:20;98259.03;;;5.67;100.00
25084;BME280;13075;55.682;37.564;2023-02-01T03:53:48;98264.47;;;5.46;100.00
25084;BME280;13075;55.682;37.564;2023-02-01T03:56:18;98267.13;;;5.52;100.00
25084;BME280;13075;55.682;37.564;2023-02-01T03:58:47;98266.00;;;5.27;100.00
25084;BME280;13075;55.682;37.564;2023-02-01T04:01:26;98278.66;;;5.32;100.00
25084;BME280;13075;55.682;37.564;2023-02-01T04:03:52;98273.66;;;5.50;100.00
25084;BME280;13075;55.682;37.564;2023-02-01T04:06:18;98281.59;;;5.50;100.00
25084;BME280;13075;55.682;37.564;2023-02-01T04:08:44;98288.06;;;5.34;100.00
25084;BME280;13075;55.682;37.564;2023-02-01T04:11:09;98282.81;;;5.41;100.00
25084;BME280;13075;55.682;37.564;2023-02-01T04:13:35;98282.59;;;5.42;100.00
25084;BME280;13075;55.682;37.564;2023-02-01T04:16:00;98286.91;;;5.43;100.00
25084;BME280;13075;55.682;37.564;2023-02-01T04:18:26;98288.75;;;5.49;100.00
25084;BME280;13075;55.682;37.564;2023-02-01T04:20:52;98291.91;;;5.73;100.00
25084;BME280;13075;55.682;37.564;2023-02-01T04:23:17;98286.16;;;5.69;100.00
25084;BME280;13075;55.682;37.564;2023-02-01T04:25:43;98293.47;;;5.54;100.00
25084;BME280;13075;55.682;37.564;2023-02-01T04:28:08;98293.88;;;5.57;100.00
25084;BME280;13075;55.682;37.564;2023-02-01T04:30:34;98292.81;;;5.39;100.00
25084;BME280;13075;55.682;37.564;2023-02-01T04:33:00;98297.50;;;5.43;100.00
25084;BME280;13075;55.682;37.564;2023-02-01T04:35:25;98298.94;;;5.39;100.00
25084;BME280;13075;55.682;37.564;2023-02-01T04:37:51;98299.16;;;5.44;100.00
25084;BME280;13075;55.682;37.564;2023-02-01T04:40:16;98296.38;;;5.72;100.00
25084;BME280;13075;55.682;37.564;2023-02-01T04:42:42;98297.19;;;5.19;100.00
25084;BME280;13075;55.682;37.564;2023-02-01T04:45:08;98295.47;;;5.45;100.00
25084;BME280;13075;55.682;37.564;2023-02-01T04:47:34;98300.38;;;5.48;100.00
25084;BME280;13075;55.682;37.564;2023-02-01T04:50:00;98303.41;;;5.45;100.00
25084;BME280;13075;55.682;37.564;2023-02-01T04:52:25;98304.47;;;5.44;100.00
25084;BME280;13075;55.682;37.564;2023-02-01T04:54:53;98311.22;;;5.53;100.00
25084;BME280;13075;55.682;37.564;2023-02-01T04:57:23;98312.50;;;5.71;100.00
25084;BME280;13075;55.682;37.564;2023-02-01T04:59:48;98312.88;;;5.61;100.00
25084;BME280;13075;55.682;37.564;2023-02-01T05:02:14;98317.19;;;5.68;100.00
25084;BME280;13075;55.682;37.564;2023-02-01T05:04:39;98321.03;;;5.59;100.00
25084;BME280;13075;55.682;37.564;2023-02-01T05:07:05;98331.69;;;5.32;100.00
25084;BME280;13075;55.682;37.564;2023-02-01T05:09:31;98338.41;;;5.62;100.00
25084;BME280;13075;55.682;37.564;2023-02-01T05:11:56;98331.00;;;5.57;100.00
25084;BME280;13075;55.682;37.564;2023-02-01T05:14:40;98327.38;;;5.65;100.00
25084;BME280;13075;55.682;37.564;2023-02-01T05:17:05;98323.69;;;5.59;100.00
25084;BME280;13075;55.682;37.564;2023-02-01T05:19:31;98328.22;;;5.79;100.00
25084;BME280;13075;55.682;37.564;2023-02-01T05:21:57;98333.25;;;5.54;100.00
25084;BME280;13075;55.682;37.564;2023-02-01T05:24:22;98333.19;;;5.41;100.00
25084;BME280;13075;55.682;37.564;2023-02-01T05:26:48;98336.19;;;5.72;100.00
25084;BME280;13075;55.682;37.564;2023-02-01T05:29:15;98329.59;;;5.61;100.00
25084;BME280;13075;55.682;37.564;2023-02-01T05:31:44;98332.66;;;5.58;100.00
25084;BME280;13075;55.682;37.564;2023-02-01T05:34:10;98334.16;;;5.74;100.00
25084;BME280;13075;55.682;37.564;2023-02-01T05:36:36;98340.50;;;5.80;100.00
25084;BME280;13075;55.682;37.564;2023-02-01T05:39:03;98335.56;;;5.77;100.00
25084;BME280;13075;55.682;37.564;2023-02-01T05:41:28;98342.34;;;5.38;100.00
25084;BME280;13075;55.682;37.564;2023-02-01T05:43:54;98345.91;;;5.58;100.00
25084;BME280;13075;55.682;37.564;2023-02-01T05:46:20;98337.06;;;5.45;100.00
25084;BME280;13075;55.682;37.564;2023-02-01T05:48:45;98351.25;;;5.24;100.00
25084;BME280;13075;55.682;37.564;2023-02-01T05:51:11;98349.78;;;5.22;100.00
25084;BME280;13075;55.682;37.564;2023-02-01T05:53:37;98354.34;;;5.28;100.00
25084;BME280;13075;55.682;37.564;2023-02-01T05:56:03;98347.34;;;5.61;100.00
25084;BME280;13075;55.682;37.564;2023-02-01T05:58:29;98353.34;;;5.35;100.00
25084;BME280;13075;55.682;37.564;2023-02-01T06:00:55;98350.91;;;5.34;100.00
25084;BME280;13075;55.682;37.564;2023-02-01T06:03:20;98355.94;;;5.63;100.00
25084;BME280;13075;55.682;37.564;2023-02-01T06:05:47;98363.09;;;5.28;100.00
25084;BME280;13075;55.682;37.564;2023-02-01T06:08:13;98359.00;;;5.60;100.00
25084;BME280;13075;55.682;37.564;2023-02-01T06:10:39;98364.00;;;5.42;100.00
25084;BME280;13075;55.682;37.564;2023-02-01T06:13:05;98358.03;;;5.33;100.00
25084;BME280;13075;55.682;37.564;2023-02-01T06:15:31;98369.41;;;5.27;100.00
25084;BME280;13075;55.682;37.564;2023-02-01T06:17:57;98364.91;;;5.21;100.00
25084;BME280;13075;55.682;37.564;2023-02-01T06:20:23;98367.56;;;5.21;100.00
25084;BME280;13075;55.682;37.564;2023-02-01T06:22:49;98366.59;;;5.35;100.00
25084;BME280;13075;55.682;37.564;2023-02-01T06:25:14;98376.69;;;5.53;100.00
25084;BME280;13075;55.682;37.564;2023-02-01T06:27:42;98372.13;;;5.34;100.00
25084;BME280;13075;55.682;37.564;2023-02-01T06:30:08;98369.94;;;5.44;100.00
25084;BME280;13075;55.682;37.564;2023-02-01T06:32:34;98376.38;;;5.35;100.00
25084;BME280;13075;55.682;37.564;2023-02-01T06:34:59;98377.91;;;5.50;100.00
25084;BME280;13075;55.682;37.564;2023-02-01T06:37:26;98375.56;;;5.34;100.00
25084;BME280;13075;55.682;37.564;2023-02-01T06:39:52;98372.75;;;5.42;100.00
25084;BME280;13075;55.682;37.564;2023-02-01T06:42:18;98379.72;;;5.50;100.00
25084;BME280;13075;55.682;37.564;2023-02-01T06:44:44;98382.38;;;5.50;100.00
25084;BME280;13075;55.682;37.564;2023-02-01T06:47:09;98382.38;;;5.43;100.00
25084;BME280;13075;55.682;37.564;2023-02-01T06:49:35;98381.31;;;5.38;100.00
25084;BME280;13075;55.682;37.564;2023-02-01T06:52:00;98375.69;;;5.20;100.00
25084;BME280;13075;55.682;37.564;2023-02-01T06:54:27;98379.72;;;5.50;100.00
25084;BME280;13075;55.682;37.564;2023-02-01T06:56:52;98371.22;;;5.61;100.00
25084;BME280;13075;55.682;37.564;2023-02-01T06:59:18;98376.59;;;5.33;100.00
25084;BME280;13075;55.682;37.564;2023-02-01T07:01:44;98379.84;;;5.29;100.00
25084;BME280;13075;55.682;37.564;2023-02-01T07:04:11;98391.69;;;5.33;100.00
25084;BME280;13075;55.682;37.564;2023-02-01T07:06:37;98390.25;;;5.37;100.00
25084;BME280;13075;55.682;37.564;2023-02-01T07:09:03;98386.69;;;5.17;100.00
25084;BME280;13075;55.682;37.564;2023-02-01T07:11:28;98384.56;;;5.40;100.00
25084;BME280;13075;55.682;37.564;2023-02-01T07:13:54;98394.53;;;5.31;100.00
25084;BME280;13075;55.682;37.564;2023-02-01T07:16:20;98381.75;;;5.14;100.00
25084;BME280;13075;55.682;37.564;2023-02-01T07:18:46;98393.66;;;5.24;100.00
25084;BME280;13075;55.682;37.564;2023-02-01T07:21:12;98396.38;;;5.03;100.00
25084;BME280;13075;55.682;37.564;2023-02-01T07:23:39;98405.44;;;4.87;100.00
25084;BME280;13075;55.682;37.564;2023-02-01T07:26:06;98402.66;;;4.95;100.00
25084;BME280;13075;55.682;37.564;2023-02-01T07:28:34;98401.34;;;5.13;100.00
25084;BME280;13075;55.682;37.564;2023-02-01T07:33:30;98407.41;;;5.07;100.00
25084;BME280;13075;55.682;37.564;2023-02-01T07:35:55;98416.78;;;5.37;100.00
25084;BME280;13075;55.682;37.564;2023-02-01T07:38:21;98397.81;;;5.33;100.00
25084;BME280;13075;55.682;37.564;2023-02-01T07:40:49;98407.28;;;5.49;100.00
25084;BME280;13075;55.682;37.564;2023-02-01T07:43:15;98405.75;;;5.68;100.00
25084;BME280;13075;55.682;37.564;2023-02-01T07:45:41;98405.88;;;5.53;100.00
25084;BME280;13075;55.682;37.564;2023-02-01T07:48:06;98409.72;;;5.50;100.00
25084;BME280;13075;55.682;37.564;2023-02-01T07:50:32;98407.28;;;5.49;100.00
25084;BME280;13075;55.682;37.564;2023-02-01T07:53:01;98404.56;;;5.70;100.00
25084;BME280;13075;55.682;37.564;2023-02-01T07:55:27;98397.19;;;5.31;100.00
25084;BME280;13075;55.682;37.564;2023-02-01T07:57:53;98399.97;;;5.57;100.00
25084;BME280;13075;55.682;37.564;2023-02-01T08:00:21;98404.34;;;5.72;100.00
25084;BME280;13075;55.682;37.564;2023-02-01T08:03:05;98397.75;;;5.61;100.00
25084;BME280;13075;55.682;37.564;2023-02-01T08:05:31;98401.31;;;5.81;100.00
25084;BME280;13075;55.682;37.564;2023-02-01T08:07:56;98401.22;;;5.61;100.00
25084;BME280;13075;55.682;37.564;2023-02-01T08:10:22;98400.41;;;6.02;100.00
25084;BME280;13075;55.682;37.564;2023-02-01T08:12:48;98402.28;;;5.67;100.00
25084;BME280;13075;55.682;37.564;2023-02-01T08:15:18;98392.56;;;5.81;100.00
25084;BME280;13075;55.682;37.564;2023-02-01T08:17:50;98391.47;;;5.68;100.00
25084;BME280;13075;55.682;37.564;2023-02-01T08:20:17;98395.41;;;6.26;100.00
25084;BME280;13075;55.682;37.564;2023-02-01T08:22:44;98391.31;;;6.31;100.00
25084;BME280;13075;55.682;37.564;2023-02-01T08:25:10;98398.41;;;6.17;100.00
25084;BME280;13075;55.682;37.564;2023-02-01T08:27:36;98394.34;;;6.21;100.00
25084;BME280;13075;55.682;37.564;2023-02-01T08:30:03;98392.50;;;6.15;100.00
25084;BME280;13075;55.682;37.564;2023-02-01T08:32:30;98392.13;;;6.38;100.00
25084;BME280;13075;55.682;37.564;2023-02-01T08:34:56;98392.19;;;6.57;100.00
25084;BME280;13075;55.682;37.564;2023-02-01T08:37:21;98389.72;;;6.56;100.00
25084;BME280;13075;55.682;37.564;2023-02-01T08:39:47;98380.34;;;6.73;100.00
25084;BME280;13075;55.682;37.564;2023-02-01T08:42:16;98385.81;;;6.39;100.00
25084;BME280;13075;55.682;37.564;2023-02-01T08:45:00;98386.84;;;6.51;100.00
25084;BME280;13075;55.682;37.564;2023-02-01T08:47:26;98389.09;;;6.54;100.00
25084;BME280;13075;55.682;37.564;2023-02-01T08:49:51;98385.81;;;6.32;100.00
25084;BME280;13075;55.682;37.564;2023-02-01T08:52:18;98379.50;;;6.66;100.00
25084;BME280;13075;55.682;37.564;2023-02-01T08:54:44;98379.09;;;6.62;100.00
25084;BME280;13075;55.682;37.564;2023-02-01T08:57:10;98371.53;;;7.12;100.00
25084;BME280;13075;55.682;37.564;2023-02-01T08:59:36;98378.69;;;6.98;100.00
25084;BME280;13075;55.682;37.564;2023-02-01T09:02:01;98385.25;;;6.63;100.00
25084;BME280;13075;55.682;37.564;2023-02-01T09:04:27;98383.56;;;6.36;100.00
25084;BME280;13075;55.682;37.564;2023-02-01T09:06:52;98387.81;;;6.30;100.00
25084;BME280;13075;55.682;37.564;2023-02-01T09:09:22;98381.75;;;6.69;100.00
25084;BME280;13075;55.682;37.564;2023-02-01T09:11:47;98381.13;;;6.47;100.00
25084;BME280;13075;55.682;37.564;2023-02-01T09:14:14;98377.28;;;6.76;100.00
25084;BME280;13075;55.682;37.564;2023-02-01T09:16:40;98382.16;;;6.66;100.00
25084;BME280;13075;55.682;37.564;2023-02-01T09:19:05;98379.66;;;6.25;100.00
25084;BME280;13075;55.682;37.564;2023-02-01T09:21:31;98368.66;;;6.35;100.00
25084;BME280;13075;55.682;37.564;2023-02-01T09:23:57;98376.63;;;6.35;100.00
25084;BME280;13075;55.682;37.564;2023-02-01T09:26:22;98382.78;;;6.55;100.00
25084;BME280;13075;55.682;37.564;2023-02-01T09:28:48;98374.25;;;5.99;100.00
25084;BME280;13075;55.682;37.564;2023-02-01T09:31:14;98372.66;;;6.04;100.00
25084;BME280;13075;55.682;37.564;2023-02-01T09:33:40;98369.06;;;6.38;100.00
25084;BME280;13075;55.682;37.564;2023-02-01T09:36:05;98374.78;;;6.42;100.00
25084;BME280;13075;55.682;37.564;2023-02-01T09:38:32;98374.97;;;6.34;100.00
25084;BME280;13075;55.682;37.564;2023-02-01T09:40:58;98373.53;;;6.31;100.00
25084;BME280;13075;55.682;37.564;2023-02-01T09:43:38;98371.28;;;6.28;100.00
25084;BME280;13075;55.682;37.564;2023-02-01T09:46:31;98365.22;;;6.60;100.00
25084;BME280;13075;55.682;37.564;2023-02-01T09:49:02;98364.94;;;6.22;100.00
25084;BME280;13075;55.682;37.564;2023-02-01T09:51:33;98364.16;;;6.42;100.00
25084;BME280;13075;55.682;37.564;2023-02-01T09:54:36;98372.06;;;6.15;100.00
25084;BME280;13075;55.682;37.564;2023-02-01T09:57:18;98375.38;;;5.36;100.00
25084;BME280;13075;55.682;37.564;2023-02-01T09:59:51;98364.25;;;5.88;100.00
25084;BME280;13075;55.682;37.564;2023-02-01T10:02:23;98363.47;;;6.07;100.00
25084;BME280;13075;55.682;37.564;2023-02-01T10:04:49;98368.31;;;5.90;100.00
25084;BME280;13075;55.682;37.564;2023-02-01T10:09:59;98366.59;;;5.76;100.00
25084;BME280;13075;55.682;37.564;2023-02-01T10:12:53;98361.28;;;6.23;100.00
25084;BME280;13075;55.682;37.564;2023-02-01T10:15:52;98359.69;;;6.42;100.00
25084;BME280;13075;55.682;37.564;2023-02-01T10:18:48;98358.25;;;6.66;100.00
25084;BME280;13075;55.682;37.564;2023-02-01T10:24:17;98352.91;;;6.92;100.00
25084;BME280;13075;55.682;37.564;2023-02-01T10:26:59;98350.47;;;6.45;100.00
25084;BME280;13075;55.682;37.564;2023-02-01T10:29:32;98359.06;;;6.60;100.00
25084;BME280;13075;55.682;37.564;2023-02-01T10:32:00;98357.38;;;6.13;100.00
25084;BME280;13075;55.682;37.564;2023-02-01T10:34:30;98360.59;;;5.95;100.00
25084;BME280;13075;55.682;37.564;2023-02-01T10:37:07;98363.63;;;5.86;100.00
25084;BME280;13075;55.682;37.564;2023-02-01T10:39:35;98361.66;;;6.20;100.00
25084;BME280;13075;55.682;37.564;2023-02-01T10:42:02;98352.13;;;6.52;100.00
25084;BME280;13075;55.682;37.564;2023-02-01T10:44:30;98358.19;;;6.20;100.00
25084;BME280;13075;55.682;37.564;2023-02-01T10:46:56;98357.53;;;6.05;100.00
25084;BME280;13075;55.682;37.564;2023-02-01T10:49:40;98346.56;;;6.21;100.00
25084;BME280;13075;55.682;37.564;2023-02-01T10:52:15;98361.63;;;6.07;100.00
25084;BME280;13075;55.682;37.564;2023-02-01T10:54:42;98365.75;;;6.16;100.00
25084;BME280;13075;55.682;37.564;2023-02-01T10:57:09;98360.47;;;6.30;100.00
25084;BME280;13075;55.682;37.564;2023-02-01T10:59:35;98357.00;;;6.29;100.00
25084;BME280;13075;55.682;37.564;2023-02-01T11:02:14;98366.94;;;6.01;100.00
25084;BME280;13075;55.682;37.564;2023-02-01T11:04:41;98359.81;;;6.14;100.00
25084;BME280;13075;55.682;37.564;2023-02-01T11:09:40;98367.09;;;5.93;100.00
25084;BME280;13075;55.682;37.564;2023-02-01T11:12:23;98354.53;;;5.74;100.00
25084;BME280;13075;55.682;37.564;2023-02-01T11:14:50;98358.31;;;5.92;100.00
25084;BME280;13075;55.682;37.564;2023-02-01T11:20:00;98357.31;;;6.00;100.00
25084;BME280;13075;55.682;37.564;2023-02-01T11:22:26;98361.88;;;6.19;100.00
25084;BME280;13075;55.682;37.564;2023-02-01T11:24:53;98359.38;;;5.98;100.00
25084;BME280;13075;55.682;37.564;2023-02-01T11:27:21;98368.75;;;6.00;100.00
25084;BME280;13075;55.682;37.564;2023-02-01T11:29:55;98365.69;;;5.49;100.00
25084;BME280;13075;55.682;37.564;2023-02-01T11:32:24;98359.63;;;6.16;100.00
25084;BME280;13075;55.682;37.564;2023-02-01T11:34:57;98372.22;;;5.53;100.00
25084;BME280;13075;55.682;37.564;2023-02-01T11:37:31;98372.66;;;5.57;100.00
25084;BME280;13075;55.682;37.564;2023-02-01T11:40:01;98371.59;;;5.51;100.00
25084;BME280;13075;55.682;37.564;2023-02-01T11:42:29;98365.38;;;5.03;100.00
25084;BME280;13075;55.682;37.564;2023-02-01T11:45:25;98370.28;;;5.00;100.00
25084;BME280;13075;55.682;37.564;2023-02-01T11:47:52;98373.13;;;5.74;100.00
25084;BME280;13075;55.682;37.564;2023-02-01T11:56:32;98365.13;;;6.14;100.00
25084;BME280;13075;55.682;37.564;2023-02-01T12:04:56;98386.47;;;5.52;100.00
25084;BME280;13075;55.682;37.564;2023-02-01T12:07:36;98385.47;;;5.94;100.00
25084;BME280;13075;55.682;37.564;2023-02-01T12:10:30;98388.00;;;6.15;100.00
25084;BME280;13075;55.682;37.564;2023-02-01T12:16:09;98379.47;;;5.79;100.00
25084;BME280;13075;55.682;37.564;2023-02-01T12:21:36;98397.69;;;5.89;100.00
25084;BME280;13075;55.682;37.564;2023-02-01T12:24:11;98400.94;;;5.84;100.00
25084;BME280;13075;55.682;37.564;2023-02-01T12:41:06;98402.47;;;5.65;100.00
25084;BME280;13075;55.682;37.564;2023-02-01T12:43:56;98397.13;;;5.59;100.00
25084;BME280;13075;55.682;37.564;2023-02-01T12:46:53;98395.22;;;5.81;100.00
25084;BME280;13075;55.682;37.564;2023-02-01T12:51:57;98398.47;;;5.83;100.00
25084;BME280;13075;55.682;37.564;2023-02-01T12:54:46;98404.78;;;5.75;100.00
25084;BME280;13075;55.682;37.564;2023-02-01T12:57:27;98396.94;;;6.01;100.00
25084;BME280;13075;55.682;37.564;2023-02-01T13:00:23;98396.94;;;6.01;100.00
25084;BME280;13075;55.682;37.564;2023-02-01T13:03:00;98401.72;;;6.19;100.00
25084;BME280;13075;55.682;37.564;2023-02-01T13:05:44;98401.28;;;6.22;100.00
25084;BME280;13075;55.682;37.564;2023-02-01T13:08:25;98403.38;;;6.26;100.00
25084;BME280;13075;55.682;37.564;2023-02-01T13:11:00;98395.34;;;6.13;100.00
25084;BME280;13075;55.682;37.564;2023-02-01T13:13:41;98408.41;;;6.15;100.00
25084;BME280;13075;55.682;37.564;2023-02-01T13:18:49;98403.28;;;6.00;100.00
25084;BME280;13075;55.682;37.564;2023-02-01T13:21:20;98399.63;;;6.08;100.00
25084;BME280;13075;55.682;37.564;2023-02-01T13:23:48;98396.72;;;5.96;100.00
25084;BME280;13075;55.682;37.564;2023-02-01T13:26:15;98402.44;;;6.00;100.00
25084;BME280;13075;55.682;37.564;2023-02-01T13:28:52;98402.84;;;5.97;100.00
25084;BME280;13075;55.682;37.564;2023-02-01T13:31:33;98409.66;;;5.78;100.00
25084;BME280;13075;55.682;37.564;2023-02-01T13:42:48;98400.63;;;5.59;100.00
25084;BME280;13075;55.682;37.564;2023-02-01T13:45:18;98404.56;;;5.77;100.00
25084;BME280;13075;55.682;37.564;2023-02-01T13:47:47;98397.03;;;5.12;100.00
25084;BME280;13075;55.682;37.564;2023-02-01T13:50:31;98405.72;;;5.61;100.00
25084;BME280;13075;55.682;37.564;2023-02-01T13:56:16;98410.66;;;5.71;100.00
25084;BME280;13075;55.682;37.564;2023-02-01T13:58:44;98414.72;;;5.60;100.00
25084;BME280;13075;55.682;37.564;2023-02-01T14:03:52;98408.22;;;5.35;100.00
25084;BME280;13075;55.682;37.564;2023-02-01T14:06:38;98418.38;;;5.03;100.00
25084;BME280;13075;55.682;37.564;2023-02-01T14:17:29;98420.28;;;5.10;100.00
25084;BME280;13075;55.682;37.564;2023-02-01T14:19:32;98417.25;;;5.13;100.00
25084;BME280;13075;55.682;37.564;2023-02-01T14:22:00;98412.81;;;4.71;100.00
25084;BME280;13075;55.682;37.564;2023-02-01T14:24:32;98425.97;;;4.85;100.00
25084;BME280;13075;55.682;37.564;2023-02-01T14:27:21;98416.31;;;4.99;100.00
25084;BME280;13075;55.682;37.564;2023-02-01T14:30:04;98428.22;;;4.82;100.00
25084;BME280;13075;55.682;37.564;2023-02-01T14:32:37;98425.25;;;4.70;100.00
25084;BME280;13075;55.682;37.564;2023-02-01T14:35:16;98424.88;;;4.73;100.00
25084;BME280;13075;55.682;37.564;2023-02-01T14:37:43;98415.31;;;5.00;100.00
25084;BME280;13075;55.682;37.564;2023-02-01T15:14:30;98445.13;;;4.81;100.00
25084;BME280;13075;55.682;37.564;2023-02-01T15:16:56;98448.69;;;5.16;100.00
25084;BME280;13075;55.682;37.564;2023-02-01T15:19:24;98446.97;;;4.59;100.00
25084;BME280;13075;55.682;37.564;2023-02-01T15:21:54;98445.31;;;5.00;100.00
25084;BME280;13075;55.682;37.564;2023-02-01T15:24:22;98443.63;;;4.72;100.00
25084;BME280;13075;55.682;37.564;2023-02-01T15:26:49;98456.22;;;4.70;100.00
25084;BME280;13075;55.682;37.564;2023-02-01T15:29:15;98454.09;;;4.80;100.00